createdAt,value
2022-09-30T00:00:45.891Z,0.00
2022-09-30T00:01:45.979Z,0.00
2022-09-30T00:02:45.904Z,0.00
2022-09-30T00:03:45.840Z,0.00
2022-09-30T00:04:45.820Z,0.00
2022-09-30T00:05:45.802Z,0.00
2022-09-30T00:06:45.793Z,0.00
2022-09-30T00:07:45.775Z,0.00
2022-09-30T00:08:45.860Z,0.00
2022-09-30T00:09:45.784Z,0.00
2022-09-30T00:10:45.773Z,0.00
2022-09-30T00:11:45.707Z,0.00
2022-09-30T00:12:45.695Z,0.00
2022-09-30T00:13:45.669Z,0.00
2022-09-30T00:14:45.661Z,0.00
2022-09-30T00:15:45.632Z,0.00
2022-09-30T00:16:45.674Z,0.00
2022-09-30T00:17:45.644Z,0.00
2022-09-30T00:18:45.585Z,0.00
2022-09-30T00:19:45.570Z,0.00
2022-09-30T00:20:45.552Z,0.00
2022-09-30T00:21:45.550Z,0.00
2022-09-30T00:22:45.567Z,0.00
2022-09-30T00:23:45.507Z,0.00
2022-09-30T00:24:45.489Z,0.00
2022-09-30T00:25:45.480Z,0.00
2022-09-30T00:26:45.454Z,0.00
2022-09-30T00:27:45.499Z,0.00
2022-09-30T00:28:45.420Z,0.00
2022-09-30T00:29:45.398Z,0.00
2022-09-30T00:30:45.383Z,0.00
2022-09-30T00:31:45.458Z,0.00
2022-09-30T00:32:45.353Z,0.00
2022-09-30T00:33:45.391Z,0.00
2022-09-30T00:34:45.322Z,0.00
2022-09-30T00:35:45.300Z,0.00
2022-09-30T00:36:45.292Z,0.00
2022-09-30T00:37:45.268Z,0.00
2022-09-30T00:38:45.285Z,0.00
2022-09-30T00:39:45.233Z,0.00
2022-09-30T00:40:45.258Z,0.00
2022-09-30T00:41:45.197Z,0.00
2022-09-30T00:42:45.184Z,0.00
2022-09-30T00:43:45.170Z,0.00
2022-09-30T00:44:45.315Z,0.00
2022-09-30T00:45:45.174Z,0.00
2022-09-30T00:46:45.274Z,0.00
2022-09-30T00:47:45.102Z,0.00
2022-09-30T00:48:45.099Z,0.00
2022-09-30T00:49:45.063Z,0.00
2022-09-30T00:50:45.081Z,0.00
2022-09-30T00:51:45.028Z,0.00
2022-09-30T00:52:45.014Z,0.00
2022-09-30T00:53:44.995Z,0.00
2022-09-30T00:54:44.981Z,0.00
2022-09-30T00:55:44.990Z,0.00
2022-09-30T00:56:44.951Z,0.00
2022-09-30T00:57:44.927Z,0.00
2022-09-30T00:58:44.916Z,0.00
2022-09-30T00:59:44.897Z,0.00
2022-09-30T01:00:44.967Z,0.00
2022-09-30T01:01:44.912Z,0.00
2022-09-30T01:02:44.902Z,0.00
2022-09-30T01:03:44.833Z,0.00
2022-09-30T01:04:44.814Z,0.00
2022-09-30T01:05:44.792Z,0.00
2022-09-30T01:06:44.777Z,0.00
2022-09-30T01:07:44.758Z,0.00
2022-09-30T01:08:44.759Z,0.00
2022-09-30T01:09:44.772Z,0.00
2022-09-30T01:10:44.743Z,0.00
2022-09-30T01:11:44.693Z,0.00
2022-09-30T01:12:44.681Z,0.00
2022-09-30T01:13:44.658Z,0.00
2022-09-30T01:14:44.642Z,0.00
2022-09-30T01:15:44.655Z,0.00
2022-09-30T01:16:44.608Z,0.00
2022-09-30T01:17:44.589Z,0.00
2022-09-30T01:18:44.575Z,0.00
2022-09-30T01:19:44.556Z,0.00
2022-09-30T01:20:44.615Z,0.00
2022-09-30T01:21:44.522Z,0.00
2022-09-30T01:22:44.507Z,0.00
2022-09-30T01:23:44.491Z,0.00
2022-09-30T01:24:44.475Z,0.00
2022-09-30T01:25:44.456Z,0.00
2022-09-30T01:26:44.494Z,0.00
2022-09-30T01:27:44.427Z,0.00
2022-09-30T01:28:44.406Z,0.00
2022-09-30T01:29:44.409Z,0.00
2022-09-30T01:30:44.371Z,0.00
2022-09-30T01:31:44.402Z,0.00
2022-09-30T01:32:44.379Z,0.00
2022-09-30T01:33:44.319Z,0.00
2022-09-30T01:34:44.306Z,0.00
2022-09-30T01:35:44.290Z,0.00
2022-09-30T01:36:44.302Z,0.00
2022-09-30T01:37:44.299Z,0.00
2022-09-30T01:38:44.240Z,0.00
2022-09-30T01:39:44.213Z,0.00
2022-09-30T01:40:44.210Z,0.00
2022-09-30T01:41:44.190Z,0.00
2022-09-30T01:42:44.210Z,0.00
2022-09-30T01:43:44.176Z,0.00
2022-09-30T01:44:44.134Z,0.00
2022-09-30T01:45:44.141Z,0.00
2022-09-30T01:46:44.189Z,0.00
2022-09-30T01:47:44.082Z,0.00
2022-09-30T01:48:44.099Z,0.00
2022-09-30T01:49:44.046Z,0.00
2022-09-30T01:50:44.034Z,0.00
2022-09-30T01:51:44.015Z,0.00
2022-09-30T01:52:44.002Z,0.00
2022-09-30T01:53:44.006Z,0.00
2022-09-30T01:54:43.965Z,0.00
2022-09-30T01:55:43.948Z,0.00
2022-09-30T01:56:43.932Z,0.00
2022-09-30T01:57:43.917Z,0.00
2022-09-30T01:58:43.921Z,0.00
2022-09-30T01:59:43.876Z,0.00
2022-09-30T02:00:43.900Z,0.00
2022-09-30T02:01:43.890Z,0.00
2022-09-30T02:02:43.830Z,0.00
2022-09-30T02:03:43.835Z,0.00
2022-09-30T02:04:43.796Z,0.00
2022-09-30T02:05:43.777Z,0.00
2022-09-30T02:06:43.768Z,0.00
2022-09-30T02:07:43.741Z,0.00
2022-09-30T02:08:43.779Z,0.00
2022-09-30T02:09:43.787Z,0.00
2022-09-30T02:10:43.689Z,0.00
2022-09-30T02:11:43.671Z,0.00
2022-09-30T02:12:43.659Z,0.00
2022-09-30T02:13:43.638Z,0.00
2022-09-30T02:14:43.674Z,0.00
2022-09-30T02:15:43.606Z,0.00
2022-09-30T02:16:43.589Z,0.00
2022-09-30T02:17:43.569Z,0.00
2022-09-30T02:18:43.552Z,0.00
2022-09-30T02:19:43.535Z,0.00
2022-09-30T02:20:43.547Z,0.00
2022-09-30T02:21:43.503Z,0.00
2022-09-30T02:22:43.488Z,0.00
2022-09-30T02:23:43.485Z,0.00
2022-09-30T02:24:43.476Z,0.00
2022-09-30T02:25:43.430Z,0.00
2022-09-30T02:26:43.418Z,0.00
2022-09-30T02:27:43.399Z,0.00
2022-09-30T02:28:43.382Z,0.00
2022-09-30T02:29:43.395Z,0.00
2022-09-30T02:30:43.346Z,0.00
2022-09-30T02:31:43.396Z,0.00
2022-09-30T02:32:43.315Z,0.00
2022-09-30T02:33:43.293Z,0.00
2022-09-30T02:34:43.321Z,0.00
2022-09-30T02:35:43.262Z,0.00
2022-09-30T02:36:43.245Z,0.00
2022-09-30T02:37:43.226Z,0.00
2022-09-30T02:38:43.213Z,0.00
2022-09-30T02:39:43.257Z,0.00
2022-09-30T02:40:43.178Z,0.00
2022-09-30T02:41:43.160Z,0.00
2022-09-30T02:42:43.139Z,0.00
2022-09-30T02:43:43.125Z,0.00
2022-09-30T02:44:43.105Z,0.00
2022-09-30T02:45:43.144Z,0.00
2022-09-30T02:46:43.139Z,0.00
2022-09-30T02:47:43.059Z,0.00
2022-09-30T02:48:43.042Z,0.00
2022-09-30T02:49:43.024Z,0.00
2022-09-30T02:50:43.000Z,0.00
2022-09-30T02:51:42.993Z,0.00
2022-09-30T02:52:42.970Z,0.00
2022-09-30T02:53:42.948Z,0.00
2022-09-30T02:54:42.936Z,0.00
2022-09-30T02:55:42.955Z,0.00
2022-09-30T02:56:42.896Z,0.00
2022-09-30T02:57:42.884Z,0.00
2022-09-30T02:58:42.866Z,0.00
2022-09-30T02:59:42.848Z,0.00
2022-09-30T03:00:42.926Z,0.00
2022-09-30T03:01:42.829Z,0.00
2022-09-30T03:02:42.796Z,0.00
2022-09-30T03:03:42.816Z,0.00
2022-09-30T03:04:42.763Z,0.00
2022-09-30T03:05:42.746Z,0.00
2022-09-30T03:06:42.725Z,0.00
2022-09-30T03:07:42.731Z,0.00
2022-09-30T03:08:42.703Z,0.00
2022-09-30T03:09:42.720Z,0.00
2022-09-30T03:10:42.654Z,0.00
2022-09-30T03:11:42.642Z,0.00
2022-09-30T03:12:42.691Z,0.00
2022-09-30T03:13:42.605Z,0.00
2022-09-30T03:14:42.592Z,0.00
2022-09-30T03:15:42.590Z,0.00
2022-09-30T03:16:42.635Z,0.00
2022-09-30T03:17:42.541Z,0.00
2022-09-30T03:18:42.551Z,0.00
2022-09-30T03:19:42.501Z,0.00
2022-09-30T03:20:42.493Z,0.00
2022-09-30T03:21:42.525Z,0.00
2022-09-30T03:22:42.451Z,0.00
2022-09-30T03:23:42.429Z,0.00
2022-09-30T03:24:42.425Z,0.00
2022-09-30T03:25:42.402Z,0.00
2022-09-30T03:26:42.387Z,0.00
2022-09-30T03:27:42.415Z,0.00
2022-09-30T03:28:42.350Z,0.00
2022-09-30T03:29:42.329Z,0.00
2022-09-30T03:30:42.314Z,0.00
2022-09-30T03:31:42.317Z,0.00
2022-09-30T03:32:42.303Z,0.00
2022-09-30T03:33:42.270Z,0.00
2022-09-30T03:34:42.237Z,0.00
2022-09-30T03:35:42.256Z,0.00
2022-09-30T03:36:42.216Z,0.00
2022-09-30T03:37:42.191Z,0.00
2022-09-30T03:38:42.228Z,0.00
2022-09-30T03:39:42.162Z,0.00
2022-09-30T03:40:42.139Z,0.00
2022-09-30T03:41:42.124Z,0.00
2022-09-30T03:42:42.108Z,0.00
2022-09-30T03:43:42.095Z,0.00
2022-09-30T03:44:42.101Z,0.00
2022-09-30T03:45:42.055Z,0.00
2022-09-30T03:46:42.121Z,0.00
2022-09-30T03:47:42.036Z,0.00
2022-09-30T03:48:42.000Z,0.00
2022-09-30T03:49:41.987Z,0.00
2022-09-30T03:50:41.967Z,0.00
2022-09-30T03:51:41.953Z,0.00
2022-09-30T03:52:41.942Z,0.00
2022-09-30T03:53:41.951Z,0.00
2022-09-30T03:54:41.899Z,0.00
2022-09-30T03:55:41.883Z,0.00
2022-09-30T03:56:41.863Z,0.00
2022-09-30T03:57:41.851Z,0.00
2022-09-30T03:58:41.860Z,0.00
2022-09-30T03:59:41.812Z,0.00
2022-09-30T04:00:41.840Z,0.00
2022-09-30T04:01:41.822Z,0.00
2022-09-30T04:02:41.757Z,0.00
2022-09-30T04:03:41.792Z,0.00
2022-09-30T04:04:41.725Z,0.00
2022-09-30T04:05:41.709Z,0.00
2022-09-30T04:06:41.696Z,0.00
2022-09-30T04:07:41.674Z,0.00
2022-09-30T04:08:41.661Z,0.00
2022-09-30T04:09:41.743Z,0.00
2022-09-30T04:10:41.624Z,0.00
2022-09-30T04:11:41.610Z,0.00
2022-09-30T04:12:41.584Z,0.00
2022-09-30T04:13:41.573Z,0.00
2022-09-30T04:14:41.707Z,0.00
2022-09-30T04:15:41.550Z,0.00
2022-09-30T04:16:41.589Z,0.00
2022-09-30T04:17:41.504Z,0.00
2022-09-30T04:18:41.482Z,0.00
2022-09-30T04:19:41.469Z,0.00
2022-09-30T04:20:41.471Z,0.00
2022-09-30T04:21:41.446Z,0.00
2022-09-30T04:22:41.439Z,0.00
2022-09-30T04:23:41.405Z,0.00
2022-09-30T04:24:41.392Z,0.00
2022-09-30T04:25:41.358Z,0.00
2022-09-30T04:26:41.341Z,0.00
2022-09-30T04:27:41.353Z,0.00
2022-09-30T04:28:41.305Z,0.00
2022-09-30T04:29:41.289Z,0.00
2022-09-30T04:30:41.275Z,0.00
2022-09-30T04:31:41.298Z,0.00
2022-09-30T04:32:41.274Z,0.00
2022-09-30T04:33:41.233Z,0.00
2022-09-30T04:34:41.205Z,0.00
2022-09-30T04:35:41.187Z,0.00
2022-09-30T04:36:41.168Z,0.00
2022-09-30T04:37:41.185Z,0.00
2022-09-30T04:38:41.167Z,0.00
2022-09-30T04:39:41.121Z,0.00
2022-09-30T04:40:41.102Z,0.00
2022-09-30T04:41:41.085Z,0.00
2022-09-30T04:42:41.095Z,0.00
2022-09-30T04:43:41.054Z,0.00
2022-09-30T04:44:41.098Z,0.00
2022-09-30T04:45:41.037Z,0.00
2022-09-30T04:46:40.995Z,0.00
2022-09-30T04:47:40.978Z,0.00
2022-09-30T04:48:40.965Z,0.00
2022-09-30T04:49:40.945Z,0.00
2022-09-30T04:50:40.977Z,0.00
2022-09-30T04:51:40.906Z,0.00
2022-09-30T04:52:40.894Z,0.00
2022-09-30T04:53:40.880Z,0.00
2022-09-30T04:54:40.856Z,0.00
2022-09-30T04:55:40.842Z,0.00
2022-09-30T04:56:40.911Z,0.00
2022-09-30T04:57:40.832Z,0.00
2022-09-30T04:58:40.781Z,0.00
2022-09-30T04:59:40.788Z,0.00
2022-09-30T05:00:40.801Z,0.00
2022-09-30T05:01:40.757Z,0.00
2022-09-30T05:02:40.720Z,0.00
2022-09-30T05:03:40.703Z,0.00
2022-09-30T05:04:40.684Z,4.00
2022-09-30T05:05:40.661Z,0.00
2022-09-30T05:06:40.644Z,0.00
2022-09-30T05:07:40.647Z,4.00
2022-09-30T05:08:44.614Z,0.00
2022-09-30T05:09:40.625Z,4.00
2022-09-30T05:10:40.604Z,4.00
2022-09-30T05:11:40.562Z,4.00
2022-09-30T05:12:40.538Z,4.00
2022-09-30T05:13:40.519Z,8.00
2022-09-30T05:14:40.532Z,8.00
2022-09-30T05:15:40.487Z,4.00
2022-09-30T05:16:40.490Z,8.00
2022-09-30T05:17:40.452Z,8.00
2022-09-30T05:18:40.436Z,8.00
2022-09-30T05:19:40.442Z,12.00
2022-09-30T05:20:40.400Z,16.00
2022-09-30T05:21:40.540Z,12.00
2022-09-30T05:22:40.363Z,16.00
2022-09-30T05:23:40.352Z,16.00
2022-09-30T05:24:40.332Z,20.00
2022-09-30T05:25:40.315Z,24.00
2022-09-30T05:26:40.293Z,24.00
2022-09-30T05:27:40.348Z,24.00
2022-09-30T05:28:40.258Z,32.00
2022-09-30T05:29:40.250Z,32.00
2022-09-30T05:30:40.223Z,36.00
2022-09-30T05:31:40.285Z,40.00
2022-09-30T05:32:40.192Z,40.00
2022-09-30T05:33:40.176Z,44.00
2022-09-30T05:34:40.168Z,44.00
2022-09-30T05:35:40.147Z,48.00
2022-09-30T05:36:40.116Z,56.00
2022-09-30T05:37:40.106Z,56.00
2022-09-30T05:38:40.120Z,64.00
2022-09-30T05:39:40.064Z,68.00
2022-09-30T05:40:40.050Z,68.00
2022-09-30T05:41:40.038Z,76.00
2022-09-30T05:42:40.010Z,76.00
2022-09-30T05:43:40.038Z,84.00
2022-09-30T05:44:39.982Z,84.00
2022-09-30T05:45:39.963Z,88.00
2022-09-30T05:46:39.968Z,92.00
2022-09-30T05:47:39.931Z,96.00
2022-09-30T05:48:39.959Z,100.00
2022-09-30T05:49:39.889Z,104.00
2022-09-30T05:50:39.878Z,112.00
2022-09-30T05:51:39.859Z,112.00
2022-09-30T05:52:39.844Z,120.00
2022-09-30T05:53:39.821Z,120.00
2022-09-30T05:54:39.930Z,128.00
2022-09-30T05:55:39.786Z,132.00
2022-09-30T05:56:39.764Z,136.00
2022-09-30T05:57:39.753Z,144.00
2022-09-30T05:58:39.728Z,144.00
2022-09-30T05:59:39.715Z,152.00
2022-09-30T06:00:39.704Z,152.00
2022-09-30T06:01:39.695Z,160.00
2022-09-30T06:02:39.761Z,164.00
2022-09-30T06:03:39.654Z,168.00
2022-09-30T06:04:39.623Z,172.00
2022-09-30T06:05:39.637Z,176.00
2022-09-30T06:06:39.600Z,180.00
2022-09-30T06:07:39.577Z,184.00
2022-09-30T06:08:39.557Z,188.00
2022-09-30T06:09:39.618Z,192.00
2022-09-30T06:10:39.565Z,200.00
2022-09-30T06:11:39.501Z,200.00
2022-09-30T06:12:39.480Z,208.00
2022-09-30T06:13:39.463Z,208.00
2022-09-30T06:14:39.447Z,216.00
2022-09-30T06:15:39.429Z,224.00
2022-09-30T06:16:39.487Z,224.00
2022-09-30T06:17:39.393Z,228.00
2022-09-30T06:18:39.373Z,232.00
2022-09-30T06:19:39.359Z,236.00
2022-09-30T06:20:39.344Z,236.00
2022-09-30T06:21:39.378Z,244.00
2022-09-30T06:22:39.308Z,244.00
2022-09-30T06:23:39.290Z,248.00
2022-09-30T06:24:39.277Z,252.00
2022-09-30T06:25:39.253Z,256.00
2022-09-30T06:26:39.232Z,260.00
2022-09-30T06:27:39.224Z,264.00
2022-09-30T06:28:39.245Z,268.00
2022-09-30T06:29:39.193Z,272.00
2022-09-30T06:30:39.162Z,272.00
2022-09-30T06:31:39.210Z,280.00
2022-09-30T06:32:39.131Z,284.00
2022-09-30T06:33:39.140Z,288.00
2022-09-30T06:34:39.092Z,292.00
2022-09-30T06:35:39.083Z,296.00
2022-09-30T06:36:39.056Z,296.00
2022-09-30T06:37:39.038Z,300.00
2022-09-30T06:38:39.074Z,304.00
2022-09-30T06:39:39.008Z,308.00
2022-09-30T06:40:39.004Z,312.00
2022-09-30T06:41:38.992Z,312.00
2022-09-30T06:42:38.955Z,316.00
2022-09-30T06:43:43.373Z,324.00
2022-09-30T06:44:51.316Z,328.00
2022-09-30T06:45:38.953Z,328.00
2022-09-30T06:46:52.476Z,336.00
2022-09-30T06:47:40.575Z,336.00
2022-09-30T06:48:39.126Z,340.00
2022-09-30T06:49:48.617Z,344.00
2022-09-30T06:50:38.861Z,348.00
2022-09-30T06:51:38.797Z,352.00
2022-09-30T06:52:38.783Z,356.00
2022-09-30T06:53:38.763Z,364.00
2022-09-30T06:54:38.770Z,364.00
2022-09-30T06:55:38.730Z,364.00
2022-09-30T06:56:38.717Z,368.00
2022-09-30T06:57:38.698Z,376.00
2022-09-30T06:58:38.678Z,380.00
2022-09-30T06:59:38.703Z,380.00
2022-09-30T07:00:38.696Z,384.00
2022-09-30T07:01:38.623Z,392.00
2022-09-30T07:02:38.661Z,396.00
2022-09-30T07:03:38.590Z,396.00
2022-09-30T07:04:38.576Z,396.00
2022-09-30T07:05:38.620Z,396.00
2022-09-30T07:06:38.575Z,404.00
2022-09-30T07:07:38.595Z,408.00
2022-09-30T07:08:38.511Z,416.00
2022-09-30T07:09:38.559Z,420.00
2022-09-30T07:10:38.471Z,420.00
2022-09-30T07:11:38.504Z,420.00
2022-09-30T07:12:38.436Z,424.00
2022-09-30T07:13:38.417Z,416.00
2022-09-30T07:14:38.399Z,420.00
2022-09-30T07:15:38.383Z,428.00
2022-09-30T07:16:38.494Z,424.00
2022-09-30T07:17:38.347Z,428.00
2022-09-30T07:18:38.327Z,432.00
2022-09-30T07:19:38.323Z,432.00
2022-09-30T07:20:38.302Z,432.00
2022-09-30T07:21:38.275Z,436.00
2022-09-30T07:22:38.292Z,436.00
2022-09-30T07:23:38.242Z,440.00
2022-09-30T07:24:38.227Z,440.00
2022-09-30T07:25:38.213Z,440.00
2022-09-30T07:26:38.197Z,440.00
2022-09-30T07:27:38.223Z,440.00
2022-09-30T07:28:38.170Z,436.00
2022-09-30T07:30:03.945Z,440.00
2022-09-30T07:30:38.153Z,440.00
2022-09-30T07:31:38.172Z,448.00
2022-09-30T07:32:38.095Z,456.00
2022-09-30T07:33:38.095Z,460.00
2022-09-30T07:34:38.059Z,468.00
2022-09-30T07:35:38.067Z,472.00
2022-09-30T07:36:38.193Z,472.00
2022-09-30T07:37:38.003Z,472.00
2022-09-30T07:38:37.988Z,480.00
2022-09-30T07:39:37.991Z,484.00
2022-09-30T07:40:37.960Z,484.00
2022-09-30T07:41:37.956Z,488.00
2022-09-30T07:42:37.921Z,488.00
2022-09-30T07:43:37.907Z,492.00
2022-09-30T07:44:37.922Z,492.00
2022-09-30T07:45:37.917Z,496.00
2022-09-30T07:46:37.855Z,500.00
2022-09-30T07:47:37.834Z,508.00
2022-09-30T07:48:37.825Z,516.00
2022-09-30T07:49:37.863Z,520.00
2022-09-30T07:50:37.784Z,528.00
2022-09-30T07:51:37.766Z,532.00
2022-09-30T07:52:37.754Z,536.00
2022-09-30T07:53:37.737Z,536.00
2022-09-30T07:54:42.531Z,536.00
2022-09-30T07:55:37.724Z,544.00
2022-09-30T07:57:05.160Z,540.00
2022-09-30T07:57:37.670Z,544.00
2022-09-30T07:58:37.654Z,568.00
2022-09-30T07:59:37.665Z,560.00
2022-09-30T08:00:42.671Z,556.00
2022-09-30T08:01:37.704Z,556.00
2022-09-30T08:02:37.612Z,556.00
2022-09-30T08:03:37.568Z,556.00
2022-09-30T08:04:42.854Z,560.00
2022-09-30T08:05:37.566Z,564.00
2022-09-30T08:06:37.518Z,580.00
2022-09-30T08:07:37.497Z,588.00
2022-09-30T08:08:37.518Z,588.00
2022-09-30T08:09:37.518Z,584.00
2022-09-30T08:10:37.477Z,604.00
2022-09-30T08:11:37.430Z,596.00
2022-09-30T08:12:37.466Z,596.00
2022-09-30T08:13:37.394Z,604.00
2022-09-30T08:14:37.399Z,608.00
2022-09-30T08:15:37.364Z,620.00
2022-09-30T08:16:37.382Z,624.00
2022-09-30T08:17:37.334Z,636.00
2022-09-30T08:18:37.338Z,648.00
2022-09-30T08:19:37.293Z,660.00
2022-09-30T08:20:37.337Z,664.00
2022-09-30T08:21:37.265Z,676.00
2022-09-30T08:22:37.246Z,680.00
2022-09-30T08:23:37.240Z,684.00
2022-09-30T08:24:37.223Z,692.00
2022-09-30T08:25:37.197Z,688.00
2022-09-30T08:26:37.186Z,680.00
2022-09-30T08:27:37.183Z,672.00
2022-09-30T08:28:37.151Z,672.00
2022-09-30T08:30:05.130Z,684.00
2022-09-30T08:30:37.130Z,688.00
2022-09-30T08:31:37.223Z,684.00
2022-09-30T08:32:37.081Z,688.00
2022-09-30T08:33:37.065Z,692.00
2022-09-30T08:34:37.051Z,724.00
2022-09-30T08:35:37.035Z,820.00
2022-09-30T08:36:37.017Z,768.00
2022-09-30T08:37:37.029Z,712.00
2022-09-30T08:38:36.979Z,968.00
2022-09-30T08:39:36.971Z,940.00
2022-09-30T08:40:36.954Z,800.00
2022-09-30T08:41:36.931Z,916.00
2022-09-30T08:42:39.018Z,944.00
2022-09-30T08:43:36.899Z,1308.00
2022-09-30T08:44:36.917Z,1692.00
2022-09-30T08:45:36.916Z,1164.00
2022-09-30T08:46:36.849Z,1312.00
2022-09-30T08:47:36.877Z,5716.00
2022-09-30T08:48:36.818Z,8520.00
2022-09-30T08:49:36.798Z,7028.00
2022-09-30T08:50:36.786Z,4708.00
2022-09-30T08:51:36.768Z,3680.00
2022-09-30T08:52:48.471Z,1788.00
2022-09-30T08:53:36.733Z,888.00
2022-09-30T08:54:40.124Z,1216.00
2022-09-30T08:55:36.704Z,1776.00
2022-09-30T08:56:36.688Z,4540.00
2022-09-30T08:57:36.722Z,5980.00
2022-09-30T08:58:36.653Z,6248.00
2022-09-30T08:59:36.642Z,20224.00
2022-09-30T09:00:36.624Z,18400.00
2022-09-30T09:01:36.707Z,10948.00
2022-09-30T09:02:36.641Z,5904.00
2022-09-30T09:03:36.576Z,4680.00
2022-09-30T09:04:36.585Z,4108.00
2022-09-30T09:05:36.550Z,2476.00
2022-09-30T09:06:36.531Z,6864.00
2022-09-30T09:07:36.519Z,4760.00
2022-09-30T09:08:36.525Z,840.00
2022-09-30T09:09:36.490Z,772.00
2022-09-30T09:10:36.471Z,1040.00
2022-09-30T09:11:39.934Z,756.00
2022-09-30T09:12:36.440Z,1608.00
2022-09-30T09:13:36.458Z,1472.00
2022-09-30T09:14:36.407Z,980.00
2022-09-30T09:15:36.392Z,776.00
2022-09-30T09:16:36.426Z,700.00
2022-09-30T09:17:36.368Z,704.00
2022-09-30T09:18:36.371Z,716.00
2022-09-30T09:19:36.338Z,720.00
2022-09-30T09:20:36.327Z,708.00
2022-09-30T09:21:36.301Z,708.00
2022-09-30T09:22:36.281Z,716.00
2022-09-30T09:23:36.292Z,712.00
2022-09-30T09:24:36.281Z,716.00
2022-09-30T09:25:36.240Z,712.00
2022-09-30T09:26:36.227Z,716.00
2022-09-30T09:27:36.206Z,724.00
2022-09-30T09:28:36.229Z,720.00
2022-09-30T09:29:36.205Z,740.00
2022-09-30T09:30:36.159Z,708.00
2022-09-30T09:31:36.206Z,708.00
2022-09-30T09:32:36.144Z,700.00
2022-09-30T09:33:36.109Z,696.00
2022-09-30T09:34:39.583Z,712.00
2022-09-30T09:35:36.078Z,728.00
2022-09-30T09:36:36.066Z,744.00
2022-09-30T09:37:36.066Z,736.00
2022-09-30T09:38:36.147Z,740.00
2022-09-30T09:39:36.045Z,728.00
2022-09-30T09:40:36.000Z,724.00
2022-09-30T09:41:35.983Z,716.00
2022-09-30T09:42:36.044Z,724.00
2022-09-30T09:43:35.952Z,736.00
2022-09-30T09:44:35.969Z,864.00
2022-09-30T09:45:35.997Z,768.00
2022-09-30T09:46:35.910Z,736.00
2022-09-30T09:47:35.892Z,732.00
2022-09-30T09:48:35.877Z,736.00
2022-09-30T09:49:35.862Z,744.00
2022-09-30T09:50:35.859Z,748.00
2022-09-30T09:51:35.829Z,752.00
2022-09-30T09:52:35.816Z,744.00
2022-09-30T09:53:35.797Z,752.00
2022-09-30T09:54:35.785Z,752.00
2022-09-30T09:55:35.768Z,756.00
2022-09-30T09:56:35.767Z,800.00
2022-09-30T09:57:35.734Z,768.00
2022-09-30T09:58:35.728Z,772.00
2022-09-30T09:59:35.709Z,768.00
2022-09-30T10:00:35.695Z,772.00
2022-09-30T10:01:35.704Z,752.00
2022-09-30T10:02:35.685Z,752.00
2022-09-30T10:03:35.646Z,740.00
2022-09-30T10:04:35.637Z,732.00
2022-09-30T10:05:35.644Z,724.00
2022-09-30T10:06:35.607Z,952.00
2022-09-30T10:07:35.586Z,760.00
2022-09-30T10:08:35.579Z,780.00
2022-09-30T10:09:35.563Z,892.00
2022-09-30T10:10:35.564Z,916.00
2022-09-30T10:11:35.523Z,900.00
2022-09-30T10:12:35.507Z,848.00
2022-09-30T10:13:35.493Z,768.00
2022-09-30T10:14:35.479Z,768.00
2022-09-30T10:15:35.512Z,792.00
2022-09-30T10:16:35.480Z,784.00
2022-09-30T10:17:35.448Z,780.00
2022-09-30T10:18:35.419Z,756.00
2022-09-30T10:19:35.403Z,760.00
2022-09-30T10:20:35.454Z,756.00
2022-09-30T10:21:35.371Z,764.00
2022-09-30T10:22:35.378Z,752.00
2022-09-30T10:23:35.342Z,740.00
2022-09-30T10:24:35.328Z,740.00
2022-09-30T10:25:35.342Z,744.00
2022-09-30T10:26:35.326Z,744.00
2022-09-30T10:27:35.296Z,740.00
2022-09-30T10:28:35.294Z,740.00
2022-09-30T10:29:35.269Z,748.00
2022-09-30T10:30:35.247Z,756.00
2022-09-30T10:31:35.332Z,748.00
2022-09-30T10:32:35.210Z,736.00
2022-09-30T10:33:35.194Z,756.00
2022-09-30T10:34:35.180Z,764.00
2022-09-30T10:35:35.161Z,760.00
2022-09-30T10:36:35.182Z,776.00
2022-09-30T10:37:35.133Z,768.00
2022-09-30T10:38:35.168Z,768.00
2022-09-30T10:39:35.108Z,768.00
2022-09-30T10:40:35.268Z,768.00
2022-09-30T10:41:35.078Z,792.00
2022-09-30T10:42:35.065Z,776.00
2022-09-30T10:43:35.045Z,796.00
2022-09-30T10:44:35.034Z,788.00
2022-09-30T10:45:35.063Z,800.00
2022-09-30T10:46:35.057Z,816.00
2022-09-30T10:47:37.146Z,840.00
2022-09-30T10:48:34.977Z,884.00
2022-09-30T10:49:34.957Z,900.00
2022-09-30T10:50:34.944Z,804.00
2022-09-30T10:51:34.954Z,784.00
2022-09-30T10:52:34.919Z,784.00
2022-09-30T10:53:34.903Z,812.00
2022-09-30T10:54:34.884Z,796.00
2022-09-30T10:55:34.871Z,792.00
2022-09-30T10:56:34.904Z,804.00
2022-09-30T10:57:34.838Z,780.00
2022-09-30T10:58:34.827Z,780.00
2022-09-30T10:59:34.815Z,808.00
2022-09-30T11:00:34.801Z,804.00
2022-09-30T11:01:34.823Z,808.00
2022-09-30T11:02:34.821Z,804.00
2022-09-30T11:03:34.814Z,888.00
2022-09-30T11:04:34.742Z,828.00
2022-09-30T11:05:34.722Z,852.00
2022-09-30T11:06:34.714Z,852.00
2022-09-30T11:07:34.693Z,844.00
2022-09-30T11:08:34.686Z,836.00
2022-09-30T11:09:34.672Z,816.00
2022-09-30T11:10:34.673Z,816.00
2022-09-30T11:11:34.640Z,856.00
2022-09-30T11:12:34.657Z,892.00
2022-09-30T11:13:34.608Z,848.00
2022-09-30T11:14:34.592Z,840.00
2022-09-30T11:15:34.585Z,864.00
2022-09-30T11:16:34.734Z,884.00
2022-09-30T11:17:34.580Z,900.00
2022-09-30T11:18:34.538Z,904.00
2022-09-30T11:19:34.521Z,1112.00
2022-09-30T11:20:34.508Z,880.00
2022-09-30T11:21:34.492Z,1004.00
2022-09-30T11:22:34.533Z,1160.00
2022-09-30T11:23:34.463Z,988.00
2022-09-30T11:24:34.450Z,1008.00
2022-09-30T11:25:34.442Z,1144.00
2022-09-30T11:26:34.433Z,1008.00
2022-09-30T11:27:34.409Z,1024.00
2022-09-30T11:28:34.425Z,984.00
2022-09-30T11:29:34.412Z,1016.00
2022-09-30T11:30:34.366Z,1032.00
2022-09-30T11:31:34.392Z,1036.00
2022-09-30T11:32:34.336Z,1072.00
2022-09-30T11:33:34.320Z,988.00
2022-09-30T11:34:34.337Z,1036.00
2022-09-30T11:35:34.321Z,1088.00
2022-09-30T11:36:34.278Z,1012.00
2022-09-30T11:37:34.263Z,1028.00
2022-09-30T11:38:34.250Z,1084.00
2022-09-30T11:39:34.240Z,1180.00
2022-09-30T11:40:34.418Z,1188.00
2022-09-30T11:41:34.207Z,1088.00
2022-09-30T11:42:34.194Z,1052.00
2022-09-30T11:43:34.181Z,1116.00
2022-09-30T11:44:34.172Z,1132.00
2022-09-30T11:45:34.196Z,1116.00
2022-09-30T11:46:34.158Z,1456.00
2022-09-30T11:47:34.125Z,1312.00
2022-09-30T11:48:34.113Z,1260.00
2022-09-30T11:49:34.105Z,1292.00
2022-09-30T11:50:34.081Z,1408.00
2022-09-30T11:51:34.096Z,1432.00
2022-09-30T11:52:34.053Z,1416.00
2022-09-30T11:53:34.039Z,1408.00
2022-09-30T11:54:34.028Z,1380.00
2022-09-30T11:55:34.011Z,1420.00
2022-09-30T11:56:34.031Z,1340.00
2022-09-30T11:57:33.984Z,1324.00
2022-09-30T11:58:41.480Z,1304.00
2022-09-30T11:59:33.973Z,1336.00
2022-09-30T12:00:33.939Z,1096.00
2022-09-30T12:01:34.015Z,1232.00
2022-09-30T12:02:33.911Z,1400.00
2022-09-30T12:03:33.985Z,1316.00
2022-09-30T12:04:33.893Z,1344.00
2022-09-30T12:05:33.875Z,1372.00
2022-09-30T12:06:33.855Z,1472.00
2022-09-30T12:07:33.885Z,1452.00
2022-09-30T12:08:33.833Z,1284.00
2022-09-30T12:09:33.825Z,1316.00
2022-09-30T12:10:33.810Z,1436.00
2022-09-30T12:11:33.802Z,1356.00
2022-09-30T12:12:33.776Z,1256.00
2022-09-30T12:13:33.819Z,1204.00
2022-09-30T12:14:33.746Z,1300.00
2022-09-30T12:15:33.737Z,1328.00
2022-09-30T12:16:34.079Z,1288.00
2022-09-30T12:17:33.738Z,1236.00
2022-09-30T12:18:33.696Z,1180.00
2022-09-30T12:19:33.698Z,1216.00
2022-09-30T12:20:33.694Z,1404.00
2022-09-30T12:21:33.662Z,1372.00
2022-09-30T12:22:33.664Z,1256.00
2022-09-30T12:23:33.627Z,1068.00
2022-09-30T12:24:33.617Z,1268.00
2022-09-30T12:25:33.599Z,1384.00
2022-09-30T12:26:33.584Z,1376.00
2022-09-30T12:27:33.632Z,1164.00
2022-09-30T12:28:33.559Z,964.00
2022-09-30T12:29:33.553Z,776.00
2022-09-30T12:30:33.546Z,816.00
2022-09-30T12:31:33.542Z,820.00
2022-09-30T12:32:33.546Z,1024.00
2022-09-30T12:33:33.490Z,1156.00
2022-09-30T12:34:33.479Z,1268.00
2022-09-30T12:35:33.498Z,1432.00
2022-09-30T12:36:33.454Z,1312.00
2022-09-30T12:37:33.469Z,1372.00
2022-09-30T12:38:33.425Z,1432.00
2022-09-30T12:39:33.410Z,1276.00
2022-09-30T12:40:33.400Z,1216.00
2022-09-30T12:41:33.384Z,1308.00
2022-09-30T12:42:33.395Z,1220.00
2022-09-30T12:43:33.356Z,1484.00
2022-09-30T12:44:33.340Z,1656.00
2022-09-30T12:45:33.396Z,1576.00